Time;durP1;ratioP1;P1;durP2;ratioP2;P2;SDS_P1;SDS_P2;PMS_P1;PMS_P2;Temp;Humidity;BMP_temperature;BMP_pressure;BME280_temperature;BME280_humidity;BME280_pressure;Samples;Min_cycle;Max_cycle;Signal;HPM_P1;HPM_P2
2022/06/13 00:02:22;;;;;;;0.90;0.90;;;14.80;99.90;;;;;;4211065;28;20086;-91
2022/06/13 00:05:09;;;;;;;0.95;0.95;;;14.70;99.90;;;;;;4210838;28;20140;-91
2022/06/13 00:07:30;;;;;;;1.10;1.10;;;14.90;99.90;;;;;;4209934;28;20749;-91
2022/06/13 00:10:25;;;;;;;0.90;0.90;;;14.80;99.90;;;;;;4149707;28;20137;-91
2022/06/13 00:12:48;;;;;;;0.98;0.98;;;14.80;99.90;;;;;;4130246;28;20098;-91
2022/06/13 00:15:13;;;;;;;3.45;1.52;;;14.70;99.90;;;;;;4143713;28;20053;-91
2022/06/13 00:17:36;;;;;;;2.03;1.05;;;14.40;99.90;;;;;;4143926;28;20053;-91
2022/06/13 00:20:28;;;;;;;0.93;0.93;;;14.40;99.90;;;;;;4144204;28;20058;-90
2022/06/13 00:22:51;;;;;;;0.90;0.90;;;14.60;99.90;;;;;;4082010;29;20408;-91
2022/06/13 00:25:42;;;;;;;1.00;1.00;;;14.60;99.90;;;;;;4095857;29;20095;-91
2022/06/13 00:28:01;;;;;;;1.23;1.13;;;14.70;99.90;;;;;;4077722;28;20071;-91
2022/06/13 00:31:08;;;;;;;0.98;0.98;;;14.60;99.90;;;;;;4104484;28;20042;-90
2022/06/13 00:33:29;;;;;;;0.90;0.90;;;14.60;99.90;;;;;;4080199;29;20572;-91
2022/06/13 00:36:18;;;;;;;1.15;1.15;;;14.70;99.90;;;;;;4052935;29;20103;-91
2022/06/13 00:39:05;;;;;;;2.10;0.95;;;14.60;99.90;;;;;;4050357;29;20115;-91
2022/06/13 00:41:32;;;;;;;1.02;1.02;;;14.60;99.90;;;;;;3991494;29;20414;-91
2022/06/13 00:43:55;;;;;;;1.13;1.10;;;14.50;99.90;;;;;;4001249;29;20058;-91
2022/06/13 00:46:46;;;;;;;;;;;14.20;99.90;;;;;;3989675;29;20038;-91
2022/06/13 00:49:38;;;;;;;1.08;1.05;;;13.90;99.90;;;;;;4229194;27;20415;-90
2022/06/13 00:52:21;;;;;;;0.90;0.90;;;13.90;99.90;;;;;;4213840;28;20048;-90
2022/06/13 00:54:45;;;;;;;1.10;1.00;;;14.10;99.90;;;;;;4180765;28;20125;-90
2022/06/13 00:57:14;;;;;;;1.10;1.00;;;14.20;99.90;;;;;;4193096;28;20052;-90
2022/06/13 01:00:09;;;;;;;1.00;1.00;;;14.20;99.90;;;;;;4211428;28;20052;-90
2022/06/13 01:03:04;;;;;;;2.50;1.00;;;14.10;99.90;;;;;;4128110;28;20093;-90
2022/06/13 01:05:53;;;;;;;1.00;1.00;;;13.90;99.90;;;;;;4064263;29;20087;-91
2022/06/13 01:08:18;;;;;;;1.33;1.15;;;13.70;99.90;;;;;;4020489;29;20138;-90
2022/06/13 01:11:17;;;;;;;1.00;1.00;;;13.80;99.90;;;;;;4018342;29;20129;-90
2022/06/13 01:14:03;;;;;;;1.48;0.90;;;13.90;99.90;;;;;;4002805;29;20061;-90
2022/06/13 01:16:40;;;;;;;1.58;1.00;;;14.00;99.90;;;;;;3989780;29;20123;-90
2022/06/13 01:19:12;;;;;;;0.93;0.93;;;14.00;99.90;;;;;;3989987;29;20069;-90
2022/06/13 01:21:46;;;;;;;2.50;1.00;;;13.80;99.90;;;;;;4005122;29;20610;-90
2022/06/13 01:24:37;;;;;;;1.20;1.20;;;13.60;99.90;;;;;;4004857;29;20110;-91
2022/06/13 01:27:52;;;;;;;1.58;1.23;;;13.60;99.90;;;;;;3974837;29;20563;-90
2022/06/13 01:30:49;;;;;;;1.10;1.10;;;13.30;99.90;;;;;;3930577;30;20184;-90
2022/06/13 01:33:42;;;;;;;1.05;1.05;;;13.40;99.90;;;;;;3987300;29;20574;-90
2022/06/13 01:36:11;;;;;;;1.30;1.20;;;13.60;99.90;;;;;;3974628;29;20903;-90
2022/06/13 01:38:46;;;;;;;1.00;1.00;;;13.60;99.90;;;;;;3985825;29;20115;-91
2022/06/13 01:41:29;;;;;;;1.00;1.00;;;13.50;99.90;;;;;;4044358;29;20147;-91
2022/06/13 01:43:59;;;;;;;2.03;1.00;;;13.40;99.90;;;;;;4066436;29;20570;-90
2022/06/13 01:46:35;;;;;;;2.60;1.02;;;13.50;99.90;;;;;;4097877;28;20050;-90
2022/06/13 01:49:17;;;;;;;1.10;1.10;;;13.40;99.90;;;;;;4097878;28;20115;-90
2022/06/13 01:52:07;;;;;;;1.08;1.00;;;13.50;99.90;;;;;;4178438;28;20079;-90
2022/06/13 01:55:07;;;;;;;0.90;0.90;;;13.60;99.90;;;;;;4179372;28;20056;-91
2022/06/13 01:57:43;;;;;;;1.05;1.05;;;13.60;99.90;;;;;;4111253;28;20766;-91
2022/06/13 02:00:29;;;;;;;1.40;1.23;;;13.60;99.90;;;;;;4091571;29;20069;-90
2022/06/13 02:03:08;;;;;;;0.98;0.98;;;13.50;99.90;;;;;;4100728;29;20065;-90
2022/06/13 02:06:05;;;;;;;1.10;1.10;;;13.50;99.90;;;;;;4086762;29;20054;-90
2022/06/13 02:08:39;;;;;;;1.00;1.00;;;13.30;99.90;;;;;;4102487;28;20050;-90
2022/06/13 02:11:15;;;;;;;3.33;2.05;;;13.00;99.90;;;;;;4087055;29;20059;-90
2022/06/13 02:13:51;;;;;;;1.30;1.30;;;12.80;99.90;;;;;;4111925;28;20054;-90
2022/06/13 02:16:55;;;;;;;1.20;1.20;;;12.70;99.90;;;;;;4116343;28;20121;-90
2022/06/13 02:19:22;;;;;;;1.13;1.02;;;12.60;99.90;;;;;;4053200;29;20064;-90
2022/06/13 02:21:58;;;;;;;1.25;1.25;;;12.60;99.90;;;;;;4066265;29;20088;-90
2022/06/13 02:24:27;;;;;;;0.95;0.95;;;12.70;99.90;;;;;;4068500;29;20059;-90
2022/06/13 02:27:25;;;;;;;1.20;1.20;;;12.90;99.90;;;;;;4068447;29;20158;-90
2022/06/13 02:30:18;;;;;;;2.15;1.20;;;13.00;99.90;;;;;;4024523;29;20425;-90
2022/06/13 02:43:17;;;;;;;2.15;1.27;;;13.10;99.90;;;;;;5139392;22;1376772;-90
2022/06/13 02:46:01;;;;;;;3.17;1.08;;;12.70;99.90;;;;;;5209264;22;20099;-90
2022/06/13 02:49:11;;;;;;;1.45;1.33;;;12.60;99.90;;;;;;5199507;22;20054;-90
2022/06/13 02:51:50;;;;;;;1.45;1.45;;;12.60;99.90;;;;;;5131035;23;20032;-90
2022/06/13 02:54:18;;;;;;;1.55;1.13;;;12.50;99.90;;;;;;5102015;23;20028;-90
2022/06/13 02:57:31;;;;;;;1.30;1.30;;;12.60;99.90;;;;;;5130898;23;20559;-90
2022/06/13 03:00:00;;;;;;;1.77;1.00;;;12.80;99.90;;;;;;5110667;23;20075;-90
2022/06/13 03:02:53;;;;;;;1.40;1.30;;;12.80;99.90;;;;;;5102038;23;20121;-90
2022/06/13 03:05:32;;;;;;;1.27;1.27;;;12.80;99.90;;;;;;5112706;23;20031;-90
2022/06/13 03:08:15;;;;;;;1.10;1.10;;;12.70;99.90;;;;;;5110189;23;20067;-90
2022/06/13 03:10:46;;;;;;;6.35;1.10;;;12.50;99.90;;;;;;5077509;23;20089;-90
2022/06/13 03:13:30;;;;;;;1.35;1.35;;;12.40;99.90;;;;;;5085183;23;20080;-90
2022/06/13 03:16:19;;;;;;;;;;;12.30;99.90;;;;;;5106794;23;20032;-90
2022/06/13 03:18:51;;;;;;;1.15;1.15;;;12.40;99.90;;;;;;5097965;23;20020;-91
2022/06/13 03:21:17;;;;;;;1.10;1.10;;;12.40;99.90;;;;;;5097930;23;20357;-90
2022/06/13 03:24:17;;;;;;;5.18;1.48;;;12.40;99.90;;;;;;5085637;23;20101;-90
2022/06/13 03:26:45;;;;;;;1.67;1.20;;;12.20;99.90;;;;;;5009391;23;20131;-90
2022/06/13 03:29:22;;;;;;;1.10;1.10;;;12.00;99.90;;;;;;5061039;23;20203;-90
2022/06/13 03:31:58;;;;;;;1.45;1.45;;;11.80;99.90;;;;;;5081596;23;20109;-90
2022/06/13 03:34:27;;;;;;;1.50;1.40;;;11.70;99.90;;;;;;5061059;23;20033;-90
2022/06/13 03:37:04;;;;;;;1.60;1.30;;;11.70;99.90;;;;;;5053118;23;20048;-90
2022/06/13 03:39:30;;;;;;;1.33;1.17;;;11.70;99.90;;;;;;5053119;23;20033;-90
2022/06/13 03:42:29;;;;;;;1.20;1.20;;;11.70;99.90;;;;;;5073116;23;20485;-90
2022/06/13 03:44:58;;;;;;;1.58;1.40;;;11.80;99.90;;;;;;5028257;23;20089;-90
2022/06/13 03:47:31;;;;;;;1.38;1.27;;;11.80;99.90;;;;;;5020094;23;20030;-90
2022/06/13 03:50:40;;;;;;;1.48;1.30;;;11.70;99.90;;;;;;5027711;23;20033;-90
2022/06/13 03:53:19;;;;;;;1.70;1.45;;;11.70;99.90;;;;;;5027831;23;20067;-90
2022/06/13 03:55:49;;;;;;;1.73;1.10;;;11.80;99.90;;;;;;4999651;23;20596;-91
2022/06/13 03:58:18;;;;;;;1.38;1.38;;;11.80;99.90;;;;;;5007822;23;20110;-91
2022/06/13 04:01:17;;;;;;;1.40;1.30;;;11.90;99.90;;;;;;5027957;23;20130;-90
2022/06/13 04:03:41;;;;;;;1.20;1.20;;;11.90;99.90;;;;;;4983759;23;20092;-90
2022/06/13 04:06:34;;;;;;;1.80;1.80;;;12.10;99.90;;;;;;4983719;23;20384;-90
2022/06/13 04:09:30;;;;;;;1.30;1.30;;;12.00;99.90;;;;;;4984123;23;20075;-90
2022/06/13 04:15:59;;;;;;;1.55;1.45;;;12.10;99.90;;;;;;4952091;23;20022;-91
2022/06/13 04:18:35;;;;;;;1.20;1.20;;;12.30;99.90;;;;;;4952423;23;20044;-90
2022/06/13 04:21:00;;;;;;;1.33;1.33;;;12.30;99.90;;;;;;4936912;24;20020;-90
2022/06/13 04:23:51;;;;;;;1.10;1.10;;;12.20;99.90;;;;;;4949105;24;20018;-90
2022/06/13 04:26:29;;;;;;;3.35;1.25;;;12.20;99.90;;;;;;4929405;24;20019;-90
2022/06/13 04:29:09;;;;;;;3.92;1.70;;;12.10;99.90;;;;;;4954092;23;20028;-90
2022/06/13 04:31:59;;;;;;;1.60;1.60;;;12.00;99.90;;;;;;5000276;23;20427;-90
2022/06/13 04:34:43;;;;;;;2.42;1.35;;;11.90;99.90;;;;;;4955195;23;20034;-90
2022/06/13 04:37:45;;;;;;;1.40;1.40;;;11.90;99.90;;;;;;4955366;23;20030;-90
2022/06/13 04:40:13;;;;;;;1.95;1.35;;;11.80;99.90;;;;;;4864759;24;20025;-90
2022/06/13 04:42:49;;;;;;;1.25;1.25;;;11.70;99.90;;;;;;4902749;24;20035;-90
2022/06/13 04:45:58;;;;;;;1.92;1.83;;;11.70;99.90;;;;;;4903173;24;20085;-90
2022/06/13 04:48:18;;;;;;;2.40;2.33;;;11.70;99.90;;;;;;4874022;24;20544;-90
2022/06/13 04:51:22;;;;;;;1.35;1.25;;;11.70;99.90;;;;;;4902702;24;20032;-90
2022/06/13 04:54:17;;;;;;;1.95;1.52;;;11.80;99.90;;;;;;4925724;24;20468;-90
2022/06/13 04:56:59;;;;;;;1.38;1.38;;;12.10;99.90;;;;;;4909496;24;20023;-91
2022/06/13 05:00:03;;;;;;;1.40;1.40;;;12.20;99.90;;;;;;4909469;24;20059;-90
2022/06/13 05:02:42;;;;;;;3.13;1.40;;;12.40;99.90;;;;;;4838860;24;20089;-90
2022/06/13 05:05:04;;;;;;;1.95;1.40;;;12.40;99.90;;;;;;4819991;24;20054;-90
2022/06/13 05:07:51;;;;;;;1.58;1.50;;;12.50;99.90;;;;;;4839171;24;20024;-90
2022/06/13 05:10:17;;;;;;;1.73;1.60;;;12.60;99.90;;;;;;4837532;24;20041;-90
2022/06/13 05:12:42;;;;;;;1.80;1.70;;;12.60;99.90;;;;;;4835416;24;20540;-90
2022/06/13 05:15:08;;;;;;;4.75;1.40;;;12.70;99.90;;;;;;4835720;24;20021;-91
2022/06/13 05:18:00;;;;;;;1.85;1.38;;;12.70;99.90;;;;;;4835392;24;20519;-90
2022/06/13 05:21:04;;;;;;;5.28;3.72;;;12.80;99.90;;;;;;4833121;24;20093;-89
2022/06/13 05:23:57;;;;;;;2.38;2.17;;;12.80;99.90;;;;;;4831208;24;20033;-90
2022/06/13 05:26:27;;;;;;;3.63;3.17;;;12.90;99.90;;;;;;4853999;24;20083;-89
2022/06/13 05:28:48;;;;;;;2.55;2.45;;;13.00;99.90;;;;;;4852868;24;20037;-90
2022/06/13 05:31:13;;;;;;;1.10;1.10;;;13.00;99.90;;;;;;4897768;24;20039;-90
2022/06/13 05:33:37;;;;;;;1.90;1.17;;;13.10;99.90;;;;;;4886742;24;20055;-89
2022/06/13 05:36:02;;;;;;;1.67;1.20;;;13.10;99.90;;;;;;4879589;24;20036;-90
2022/06/13 05:38:29;;;;;;;1.05;1.05;;;13.30;99.90;;;;;;4897879;23;20033;-88
2022/06/13 05:41:16;;;;;;;1.00;1.00;;;13.40;99.90;;;;;;5025607;23;20025;-90
2022/06/13 05:43:37;;;;;;;1.10;1.00;;;13.50;99.90;;;;;;4978528;23;20035;-90
2022/06/13 05:46:00;;;;;;;1.10;1.10;;;13.60;99.90;;;;;;4971355;23;20030;-90
2022/06/13 05:48:23;;;;;;;;;;;13.70;99.90;;;;;;5066919;23;20481;-90
2022/06/13 05:50:45;;;;;;;1.52;1.08;;;13.80;99.90;;;;;;5045148;23;19980;-89
2022/06/13 05:53:39;;;;;;;1.00;1.00;;;13.90;99.90;;;;;;5055283;23;20032;-90
2022/06/13 05:56:01;;;;;;;1.48;1.33;;;14.10;99.90;;;;;;4994671;23;20060;-90
2022/06/13 05:58:51;;;;;;;4.97;1.20;;;14.10;99.90;;;;;;4982510;23;20309;-90
2022/06/13 06:01:13;;;;;;;1.50;1.00;;;14.30;99.90;;;;;;4955113;24;20031;-90
2022/06/13 06:03:35;;;;;;;1.40;1.30;;;14.40;99.90;;;;;;4928682;24;20040;-90
2022/06/13 06:06:25;;;;;;;1.08;1.00;;;14.50;99.90;;;;;;4936292;24;20227;-91
2022/06/13 06:09:31;;;;;;;0.90;0.90;;;15.00;99.90;;;;;;4879622;24;20387;-91
2022/06/13 06:11:51;;;;;;;0.80;0.80;;;15.30;99.90;;;;;;4838208;24;20070;-91
2022/06/13 06:14:38;;;;;;;0.80;0.80;;;15.50;99.90;;;;;;4838670;24;20531;-91
2022/06/13 06:17:22;;;;;;;0.90;0.90;;;16.10;99.90;;;;;;4860377;24;20105;-91
2022/06/13 06:19:42;;;;;;;3.63;0.90;;;16.20;99.90;;;;;;4838100;24;20021;-92
2022/06/13 06:22:03;;;;;;;0.80;0.80;;;16.30;99.90;;;;;;4857285;24;20363;-92
2022/06/13 06:24:50;;;;;;;0.80;0.80;;;16.50;99.90;;;;;;4837933;24;20030;-91
2022/06/13 06:37:38;;;;;;;0.80;0.80;;;16.70;99.90;;;;;;4245258;27;21126;-92
2022/06/13 06:40:27;;;;;;;0.98;0.90;;;17.30;99.90;;;;;;4230812;28;20078;-92
2022/06/13 06:43:14;;;;;;;1.15;1.05;;;17.60;99.90;;;;;;4177429;28;20733;-93
2022/06/13 06:46:01;;;;;;;0.80;0.80;;;18.00;99.90;;;;;;4082516;29;20500;-92
2022/06/13 06:48:51;;;;;;;0.80;0.80;;;18.60;99.90;;;;;;4112457;28;20102;-92
2022/06/13 06:52:01;;;;;;;0.80;0.80;;;18.40;99.90;;;;;;4068180;29;20044;-93
2022/06/13 07:01:02;;;;;;;1.13;0.90;;;18.80;99.90;;;;;;3935379;30;20052;-91
2022/06/13 07:13:36;;;;;;;0.60;0.60;;;19.50;99.90;;;;;;4275542;22;20407;-92
2022/06/13 07:15:56;;;;;;;0.60;0.60;;;20.70;99.90;;;;;;4211468;28;20093;-92
2022/06/13 07:18:21;;;;;;;1.48;0.70;;;21.40;99.90;;;;;;4192836;28;20055;-93
2022/06/13 07:20:44;;;;;;;0.50;0.50;;;21.70;99.90;;;;;;4197179;28;20055;-92
2022/06/13 07:23:29;;;;;;;0.50;0.50;;;21.80;99.90;;;;;;4180567;28;20052;-93
2022/06/13 07:25:51;;;;;;;0.70;0.50;;;22.00;99.90;;;;;;4159070;28;20128;-92
2022/06/13 07:28:11;;;;;;;0.60;0.60;;;22.30;99.90;;;;;;4147446;28;20053;-93
2022/06/13 07:31:11;;;;;;;0.60;0.52;;;22.20;99.90;;;;;;4144255;28;20060;-92
2022/06/13 07:33:32;;;;;;;0.50;0.50;;;21.90;99.90;;;;;;4088496;28;20057;-92
2022/06/13 07:35:55;;;;;;;;;;;22.30;99.90;;;;;;4080063;29;20066;-93
2022/06/13 07:38:18;;;;;;;0.63;0.63;;;22.40;99.90;;;;;;4088110;29;19933;-93
2022/06/13 07:40:41;;;;;;;0.50;0.50;;;22.40;99.90;;;;;;4083690;29;20057;-93
2022/06/13 07:43:03;;;;;;;0.65;0.50;;;22.70;99.90;;;;;;4066499;29;20425;-90
2022/06/13 07:45:51;;;;;;;0.40;0.40;;;22.70;99.40;;;;;;4078850;29;20054;-92
2022/06/13 07:48:21;;;;;;;2.47;0.40;;;23.10;99.90;;;;;;4017780;29;20053;-93
2022/06/13 07:50:42;;;;;;;0.40;0.40;;;23.60;98.20;;;;;;4017945;29;20137;-93
2022/06/13 07:53:31;;;;;;;0.40;0.40;;;24.00;98.70;;;;;;4018298;29;20153;-93
2022/06/13 07:56:09;;;;;;;;;;;24.20;99.60;;;;;;3972906;29;20784;-92
2022/06/13 07:58:46;;;;;;;0.40;0.40;;;24.30;99.30;;;;;;3958287;29;20005;-92
2022/06/13 08:01:47;;;;;;;1.20;0.40;;;24.30;98.50;;;;;;3972534;29;20050;-92
2022/06/13 08:04:35;;;;;;;0.40;0.40;;;24.40;99.10;;;;;;3902613;30;20119;-92
2022/06/13 08:07:20;;;;;;;0.50;0.50;;;24.80;98.40;;;;;;3917638;30;20047;-92
2022/06/13 08:09:42;;;;;;;0.50;0.50;;;24.70;96.50;;;;;;3957311;30;20097;-93
2022/06/13 08:12:02;;;;;;;1.02;0.50;;;24.80;96.80;;;;;;3939907;30;20044;-92
2022/06/13 08:14:21;;;;;;;0.50;0.50;;;25.00;96.50;;;;;;3946587;30;20058;-93
2022/06/13 08:16:43;;;;;;;2.78;0.40;;;25.00;95.90;;;;;;3935178;30;20051;-92
2022/06/13 08:19:06;;;;;;;0.75;0.40;;;25.20;95.70;;;;;;3935091;30;20059;-92
2022/06/13 08:21:25;;;;;;;0.40;0.40;;;25.30;96.10;;;;;;3934549;30;20137;-92
2022/06/13 08:24:11;;;;;;;0.40;0.40;;;25.40;94.40;;;;;;3935025;30;20097;-92
2022/06/13 08:26:33;;;;;;;0.50;0.50;;;25.70;94.70;;;;;;3932734;30;20055;-92
2022/06/13 08:28:53;;;;;;;0.40;0.40;;;25.70;94.30;;;;;;3935038;30;20054;-93
2022/06/13 08:31:15;;;;;;;0.40;0.40;;;25.80;93.90;;;;;;3934325;30;20124;-92
2022/06/13 08:33:35;;;;;;;0.40;0.40;;;26.50;94.10;;;;;;3976729;29;20502;-93
2022/06/13 08:35:56;;;;;;;0.90;0.40;;;26.80;93.50;;;;;;3972003;29;20294;-93
2022/06/13 08:38:42;;;;;;;2.05;0.40;;;26.80;93.60;;;;;;3964815;29;20099;-92
2022/06/13 08:41:14;;;;;;;0.50;0.50;;;26.60;94.20;;;;;;3960386;29;20478;-93
2022/06/13 08:44:03;;;;;;;0.40;0.40;;;26.80;93.50;;;;;;3985753;29;20060;-92
2022/06/13 08:46:51;;;;;;;0.40;0.40;;;26.90;94.50;;;;;;4017436;29;20612;-92
2022/06/13 08:49:49;;;;;;;1.65;0.38;;;26.90;93.80;;;;;;4050454;29;20141;-92
2022/06/13 08:52:20;;;;;;;0.50;0.30;;;27.20;95.30;;;;;;4053187;29;20150;-92
2022/06/13 08:55:20;;;;;;;0.30;0.30;;;27.10;92.50;;;;;;4051669;29;20248;-93
2022/06/13 08:58:00;;;;;;;1.38;0.30;;;27.40;91.60;;;;;;4022028;29;20186;-92
2022/06/13 09:00:26;;;;;;;0.30;0.30;;;27.90;91.70;;;;;;4022173;29;20156;-93
2022/06/13 09:03:11;;;;;;;1.48;0.30;;;28.40;91.70;;;;;;4041241;29;20047;-90
2022/06/13 09:05:48;;;;;;;1.33;0.30;;;28.70;88.10;;;;;;4082192;29;20103;-93
2022/06/13 09:08:27;;;;;;;0.40;0.30;;;28.90;90.70;;;;;;4071473;29;20086;-94
2022/06/13 09:10:52;;;;;;;;;;;28.60;82.10;;;;;;4084358;29;20526;-93
2022/06/13 09:13:26;;;;;;;0.30;0.30;;;28.80;82.90;;;;;;4070850;29;19975;-92
2022/06/13 09:15:54;;;;;;;1.27;0.30;;;28.10;82.70;;;;;;4084291;29;20198;-93
2022/06/13 09:18:22;;;;;;;1.15;0.30;;;28.00;86.30;;;;;;4083735;29;20123;-93
2022/06/13 09:21:03;;;;;;;0.65;0.30;;;28.20;85.90;;;;;;4070808;29;20055;-92
2022/06/13 09:23:54;;;;;;;0.73;0.20;;;28.70;83.00;;;;;;4091169;28;20049;-93
2022/06/13 09:26:27;;;;;;;3.55;0.40;;;28.80;81.90;;;;;;4098978;28;20523;-93
2022/06/13 09:29:16;;;;;;;0.32;0.30;;;28.90;84.30;;;;;;4086168;29;20091;-93
2022/06/13 09:32:14;;;;;;;0.60;0.30;;;28.60;78.90;;;;;;4070459;29;20625;-93
2022/06/13 09:34:40;;;;;;;1.85;0.40;;;28.70;84.80;;;;;;4079058;28;20071;-92
2022/06/13 09:37:27;;;;;;;0.30;0.30;;;29.30;81.00;;;;;;4115770;28;20079;-94
2022/06/13 09:39:50;;;;;;;1.80;0.30;;;29.10;80.40;;;;;;4110371;28;20046;-93
2022/06/13 09:42:29;;;;;;;0.30;0.30;;;28.80;77.20;;;;;;4115095;28;20475;-92
2022/06/13 09:45:10;;;;;;;0.30;0.30;;;29.00;78.70;;;;;;4115633;28;20056;-93
2022/06/13 09:47:58;;;;;;;0.25;0.25;;;29.30;79.80;;;;;;4115649;28;20078;-93
2022/06/13 09:50:43;;;;;;;3.15;0.30;;;28.90;78.50;;;;;;4101773;28;20073;-93
2022/06/13 09:53:15;;;;;;;0.95;0.30;;;28.60;77.20;;;;;;4115088;28;20539;-93
2022/06/13 09:55:55;;;;;;;0.20;0.20;;;28.60;80.00;;;;;;4101889;28;20061;-93
2022/06/13 09:59:07;;;;;;;0.50;0.30;;;28.70;83.60;;;;;;4105040;28;20057;-92
2022/06/13 10:01:45;;;;;;;0.30;0.30;;;28.80;80.00;;;;;;4062165;29;20416;-93
2022/06/13 10:04:45;;;;;;;0.70;0.30;;;28.80;78.70;;;;;;4048958;29;22266;-92
2022/06/13 10:07:14;;;;;;;0.30;0.30;;;29.10;78.60;;;;;;4038660;29;20523;-92
2022/06/13 10:12:54;;;;;;;0.32;0.20;;;29.00;78.10;;;;;;4098484;29;20239;-92
2022/06/13 10:15:23;;;;;;;0.20;0.20;;;28.90;75.00;;;;;;4092113;29;20065;-92
2022/06/13 10:18:18;;;;;;;2.72;0.43;;;28.60;77.00;;;;;;4082764;29;20066;-92
2022/06/13 10:21:05;;;;;;;0.28;0.28;;;28.80;76.30;;;;;;4093429;29;20057;-92
2022/06/13 10:23:34;;;;;;;0.77;0.30;;;28.70;77.30;;;;;;4067269;29;20618;-93
2022/06/13 10:29:54;;;;;;;0.30;0.30;;;29.20;78.60;;;;;;4064753;29;20551;-92
2022/06/13 10:32:56;;;;;;;3.05;0.30;;;29.70;78.80;;;;;;4058782;29;20536;-92
2022/06/13 10:35:39;;;;;;;0.20;0.20;;;30.10;82.20;;;;;;4076222;29;20051;-93
2022/06/13 10:38:41;;;;;;;0.20;0.20;;;30.30;77.40;;;;;;4070842;29;20085;-92
2022/06/13 10:41:04;;;;;;;0.43;0.20;;;30.10;82.80;;;;;;4063122;29;20560;-92
2022/06/13 10:43:25;;;;;;;0.20;0.20;;;30.10;77.00;;;;;;4073072;29;20115;-89
2022/06/13 10:45:47;;;;;;;1.30;0.30;;;30.30;79.40;;;;;;4081780;29;20091;-90
2022/06/13 10:48:46;;;;;;;0.20;0.20;;;30.70;77.30;;;;;;4081361;29;20074;-90
2022/06/13 10:51:07;;;;;;;1.85;0.63;;;30.70;75.90;;;;;;4029330;29;20056;-90
2022/06/13 10:53:43;;;;;;;0.30;0.30;;;30.70;74.00;;;;;;4030685;29;20089;-89
2022/06/13 10:56:46;;;;;;;1.23;0.20;;;30.90;77.00;;;;;;4034949;29;20095;-89
2022/06/13 10:59:31;;;;;;;0.20;0.20;;;31.10;73.90;;;;;;4014366;29;20052;-89
2022/06/13 11:02:03;;;;;;;0.20;0.20;;;30.60;76.30;;;;;;4006827;29;20061;-90
2022/06/13 11:04:25;;;;;;;0.20;0.20;;;30.60;80.20;;;;;;4032868;29;20055;-89
2022/06/13 11:07:16;;;;;;;0.30;0.30;;;30.60;78.60;;;;;;3999474;29;20100;-90
2022/06/13 11:09:41;;;;;;;0.90;0.22;;;30.60;77.40;;;;;;3970442;29;20501;-89
2022/06/13 11:12:17;;;;;;;1.63;0.30;;;30.60;78.10;;;;;;3965539;29;20053;-89
2022/06/13 11:22:37;;;;;;;0.30;0.30;;;30.80;77.90;;;;;;3985097;29;20524;-89
2022/06/13 11:23:05;;;;;;;0.55;0.30;;;30.20;76.20;;;;;;3975319;29;20547;-90
2022/06/13 11:25:41;;;;;;;0.20;0.20;;;30.00;76.30;;;;;;3944738;30;20096;-89
2022/06/13 11:28:15;;;;;;;0.35;0.20;;;29.90;76.30;;;;;;3974465;29;20582;-89
2022/06/13 11:31:18;;;;;;;0.20;0.20;;;29.90;76.40;;;;;;3974287;29;20142;-90
2022/06/13 11:34:41;;;;;;;0.30;0.30;;;29.90;77.30;;;;;;3976124;29;20068;-89
2022/06/13 11:37:15;;;;;;;1.15;0.25;;;29.80;79.80;;;;;;3945161;30;20070;-90
2022/06/13 11:39:43;;;;;;;0.20;0.20;;;29.60;80.80;;;;;;3946856;30;20046;-89
2022/06/13 11:42:12;;;;;;;0.65;0.40;;;29.50;79.30;;;;;;3931958;30;20178;-86
2022/06/13 11:44:42;;;;;;;0.20;0.20;;;29.40;79.50;;;;;;3931432;30;20772;-86
2022/06/13 11:47:40;;;;;;;0.28;0.28;;;29.50;78.70;;;;;;3987568;29;20452;-86
2022/06/13 11:50:11;;;;;;;0.20;0.20;;;29.50;78.30;;;;;;3997491;29;20045;-86
2022/06/13 11:56:25;;;;;;;0.30;0.30;;;29.20;84.90;;;;;;3978953;29;20051;-86
2022/06/13 11:58:51;;;;;;;0.93;0.30;;;28.40;87.40;;;;;;3981060;29;20050;-86
2022/06/13 12:01:13;;;;;;;0.73;0.40;;;28.00;88.50;;;;;;3964192;29;20108;-86
2022/06/13 12:03:34;;;;;;;1.20;0.40;;;28.10;89.90;;;;;;3958435;29;20149;-86
2022/06/13 12:06:08;;;;;;;0.20;0.20;;;28.30;88.60;;;;;;3951531;29;20108;-86
2022/06/13 12:09:01;;;;;;;0.30;0.30;;;28.30;86.80;;;;;;3976999;29;20078;-86
2022/06/13 12:11:23;;;;;;;0.30;0.30;;;28.40;89.10;;;;;;3976819;29;20115;-87
2022/06/13 12:13:47;;;;;;;0.30;0.30;;;28.50;87.10;;;;;;3996243;29;20088;-86
2022/06/13 12:16:15;;;;;;;0.30;0.30;;;28.70;87.80;;;;;;4006840;29;20586;-87
2022/06/13 12:18:51;;;;;;;0.30;0.30;;;28.90;85.60;;;;;;3993318;29;20057;-86
2022/06/13 12:21:33;;;;;;;2.00;0.30;;;28.90;84.60;;;;;;3993808;29;20799;-87
2022/06/13 12:24:23;;;;;;;0.30;0.30;;;28.90;83.00;;;;;;4006342;29;20057;-87
2022/06/13 12:27:19;;;;;;;0.30;0.30;;;29.00;83.40;;;;;;4036150;29;20050;-86
2022/06/13 12:29:50;;;;;;;1.05;0.30;;;29.00;77.30;;;;;;4056631;29;20110;-87
2022/06/13 12:32:20;;;;;;;0.30;0.30;;;29.10;80.40;;;;;;4102400;28;20069;-90
2022/06/13 12:35:03;;;;;;;10.68;0.75;;;29.40;81.90;;;;;;4161871;28;20057;-90
2022/06/13 12:37:33;;;;;;;0.50;0.20;;;29.70;80.30;;;;;;4144010;28;20105;-90
2022/06/13 12:40:04;;;;;;;0.45;0.32;;;29.80;77.20;;;;;;4148989;28;20053;-90
2022/06/13 12:42:31;;;;;;;0.25;0.25;;;29.80;78.40;;;;;;4134916;28;20113;-90
2022/06/13 12:45:14;;;;;;;1.10;0.30;;;29.80;75.60;;;;;;4172786;28;20056;-90
2022/06/13 12:47:47;;;;;;;0.45;0.30;;;29.80;76.50;;;;;;4148531;28;20108;-90
2022/06/13 12:50:32;;;;;;;1.08;0.30;;;29.40;78.20;;;;;;4149784;28;20053;-90
2022/06/13 12:53:14;;;;;;;0.20;0.20;;;29.90;83.20;;;;;;4147678;28;20702;-90
2022/06/13 12:55:53;;;;;;;0.20;0.20;;;30.20;79.30;;;;;;4162454;28;20725;-91
2022/06/13 13:01:19;;;;;;;;;;;30.30;77.50;;;;;;4150280;28;20137;-92
2022/06/13 13:04:05;;;;;;;0.30;0.30;;;30.40;76.70;;;;;;4170321;28;19932;-92
2022/06/13 13:06:53;;;;;;;1.33;0.30;;;30.60;77.40;;;;;;4146229;28;20130;-92
2022/06/13 13:09:37;;;;;;;0.57;0.30;;;30.70;75.20;;;;;;4132803;28;20053;-92
2022/06/13 13:12:41;;;;;;;0.30;0.30;;;30.80;79.30;;;;;;4133421;28;20402;-92
2022/06/13 13:15:26;;;;;;;0.20;0.20;;;30.80;73.30;;;;;;4079169;29;20066;-93
2022/06/13 13:18:00;;;;;;;1.05;0.30;;;30.70;74.30;;;;;;4107071;28;20069;-92
2022/06/13 13:21:00;;;;;;;0.20;0.20;;;30.50;74.70;;;;;;4115715;28;20082;-91
2022/06/13 13:23:22;;;;;;;0.30;0.30;;;30.60;78.30;;;;;;4054700;29;20056;-91
2022/06/13 13:26:05;;;;;;;0.30;0.30;;;30.70;76.60;;;;;;4067721;29;20151;-92
2022/06/13 13:29:00;;;;;;;;;;;30.90;77.10;;;;;;4055346;29;20067;-91
2022/06/13 13:35:23;;;;;;;0.35;0.25;;;30.80;76.90;;;;;;4004794;29;20053;-92
2022/06/13 13:38:30;;;;;;;0.50;0.30;;;30.60;73.50;;;;;;4005070;29;20129;-92
2022/06/13 13:41:18;;;;;;;0.35;0.20;;;30.70;74.30;;;;;;3991434;29;20109;-92
2022/06/13 13:44:50;;;;;;;3.53;0.30;;;30.70;73.50;;;;;;3990840;29;20484;-92
2022/06/13 13:47:22;;;;;;;0.30;0.30;;;30.60;72.60;;;;;;3933590;30;20146;-91
2022/06/13 13:50:18;;;;;;;0.28;0.28;;;30.50;75.70;;;;;;3946464;30;20078;-92
2022/06/13 13:52:45;;;;;;;0.20;0.20;;;30.60;71.40;;;;;;3903043;30;20044;-92
2022/06/13 13:56:15;;;;;;;0.30;0.30;;;30.40;72.30;;;;;;3902241;30;20060;-91
2022/06/13 13:58:31;;;;;;;2.55;0.30;;;30.30;71.50;;;;;;4180524;28;20545;-50
2022/06/13 14:01:05;;;;;;;0.30;0.25;;;30.30;73.80;;;;;;4175193;28;20048;-50
2022/06/13 14:03:52;;;;;;;0.20;0.20;;;30.30;74.80;;;;;;4175672;28;20451;-49
2022/06/13 14:06:18;;;;;;;0.63;0.30;;;30.20;75.30;;;;;;4158516;28;20044;-50
2022/06/13 14:08:43;;;;;;;0.32;0.20;;;30.10;78.70;;;;;;4174935;28;20149;-50
2022/06/13 14:11:08;;;;;;;1.13;0.22;;;30.00;74.40;;;;;;4175139;28;20527;-49
2022/06/13 14:13:34;;;;;;;0.30;0.30;;;29.90;75.70;;;;;;4175131;28;20076;-49
2022/06/13 14:15:55;;;;;;;0.28;0.28;;;29.80;77.80;;;;;;4175212;28;20152;-50
2022/06/13 14:18:45;;;;;;;0.50;0.50;;;29.90;78.00;;;;;;4170917;28;20053;-49
2022/06/13 14:21:08;;;;;;;1.85;0.22;;;29.80;81.50;;;;;;4157387;28;20052;-50
2022/06/13 14:23:43;;;;;;;1.40;0.30;;;29.90;81.20;;;;;;4165906;28;20125;-50
2022/06/13 14:26:05;;;;;;;1.00;0.20;;;29.90;76.50;;;;;;4174950;28;20060;-50
2022/06/13 14:28:46;;;;;;;0.30;0.30;;;30.00;81.60;;;;;;4171349;28;20091;-49
2022/06/13 14:31:07;;;;;;;0.50;0.30;;;30.40;80.10;;;;;;4158453;28;20204;-49
2022/06/13 14:36:53;;;;;;;0.20;0.20;;;30.60;77.80;;;;;;4174719;28;20064;-50
2022/06/13 14:39:31;;;;;;;0.85;0.30;;;31.00;78.30;;;;;;4174828;28;20052;-50
2022/06/13 14:42:00;;;;;;;0.22;0.22;;;31.10;81.70;;;;;;4174930;28;20107;-50
2022/06/13 14:44:38;;;;;;;0.20;0.20;;;31.40;76.30;;;;;;4174736;28;20103;-50
2022/06/13 14:46:59;;;;;;;0.20;0.20;;;31.80;74.50;;;;;;4158262;28;20466;-50
2022/06/13 14:49:45;;;;;;;1.55;0.20;;;32.10;77.50;;;;;;4167938;28;20458;-49
2022/06/13 14:52:12;;;;;;;1.58;0.20;;;32.40;77.20;;;;;;4168109;28;20048;-50
2022/06/13 14:55:01;;;;;;;0.65;0.22;;;32.40;75.00;;;;;;4158345;28;20526;-49